CYNL

METAR CYNL 211700Z AUTO 33005KT 9SM BKN006 OVC011 02/01 A2947 RMK AO1 SLP004
METAR
LOCATION
CYNL
DATE - TIME
211700Z
WIND
330 TRUE @ 5 KNOTS
VISIBILITY
9SM
RUNWAY VISUAL RANGE
NOT REPORTED
WEATHER
CLOUDINESS
BKN006 OVC011
TEMP / DEWPOINT
2 ºC / 1 ºC
ALTIMETER
29.47 in. Hg
RECENT WEATHER
NOT REPORTED
WIND SHEAR
NOT REPORTED
REMARKS
RMK AO1 SLP004
SEA LEVEL PRESSURE: hPa

CYNL

SPECI CYNL 211620Z AUTO 31005KT 9SM BKN006 OVC013 01/01 A2947 RMK AO1 SLP004
SPECI
LOCATION
CYNL
DATE - TIME
211620Z
WIND
310 TRUE @ 5 KNOTS
VISIBILITY
9SM
RUNWAY VISUAL RANGE
NOT REPORTED
WEATHER
CLOUDINESS
BKN006 OVC013
TEMP / DEWPOINT
1 ºC / 1 ºC
ALTIMETER
29.47 in. Hg
RECENT WEATHER
NOT REPORTED
WIND SHEAR
NOT REPORTED
REMARKS
RMK AO1 SLP004
SEA LEVEL PRESSURE: hPa

CYNL

SPECI CYNL 211619Z AUTO 30005KT 9SM SCT006 OVC013 01/01 A2947 RMK AO1 SLP004
SPECI
LOCATION
CYNL
DATE - TIME
211619Z
WIND
300 TRUE @ 5 KNOTS
VISIBILITY
9SM
RUNWAY VISUAL RANGE
NOT REPORTED
WEATHER
CLOUDINESS
SCT006 OVC013
TEMP / DEWPOINT
1 ºC / 1 ºC
ALTIMETER
29.47 in. Hg
RECENT WEATHER
NOT REPORTED
WIND SHEAR
NOT REPORTED
REMARKS
RMK AO1 SLP004
SEA LEVEL PRESSURE: hPa

Your time UTC time
 
 
Weather data provided by AXYS Technologies Inc., www.axystechnologies.com
 
Station History